Time;durP1;ratioP1;P1;durP2;ratioP2;P2;SDS_P1;SDS_P2;PMS_P1;PMS_P2;Temp;Humidity;BMP_temperature;BMP_pressure;BME280_temperature;BME280_humidity;BME280_pressure;Samples;Min_cycle;Max_cycle;Signal;HPM_P1;HPM_P2
2021/10/31 00:00:25;;;;;;;371.27;348.33;;;;;;;;;;5052788;28;20447;-62
2021/10/31 00:02:52;;;;;;;362.07;340.53;;;;;;;;;;5052558;28;20484;-63
2021/10/31 00:05:19;;;;;;;382.90;359.70;;;;;;;;;;5052689;28;20977;-63
2021/10/31 00:07:46;;;;;;;354.27;332.67;;;;;;;;;;5053444;28;20804;-63
2021/10/31 00:10:15;;;;;;;349.97;328.17;;;;;;;;;;5056488;28;20480;-63
2021/10/31 00:12:42;;;;;;;352.83;330.97;;;;;;;;;;5056650;28;20566;-63
2021/10/31 00:15:10;;;;;;;363.43;341.77;;;;;;;;;;5072913;28;20459;-63
2021/10/31 00:17:38;;;;;;;354.17;332.80;;;;;;;;;;5069097;28;20454;-63
2021/10/31 00:20:06;;;;;;;364.00;342.00;;;;;;;;;;5052918;28;20489;-64
2021/10/31 00:22:34;;;;;;;364.23;341.73;;;;;;;;;;5052607;28;20464;-63
2021/10/31 00:25:01;;;;;;;360.90;338.20;;;;;;;;;;5052018;28;20795;-63
2021/10/31 00:27:28;;;;;;;352.27;330.40;;;;;;;;;;5052737;28;20443;-63
2021/10/31 00:29:55;;;;;;;352.57;330.83;;;;;;;;;;5072728;28;20483;-63
2021/10/31 00:32:22;;;;;;;354.93;333.00;;;;;;;;;;5070511;28;20475;-63
2021/10/31 00:34:51;;;;;;;342.30;321.30;;;;;;;;;;5058744;28;20448;-63
2021/10/31 00:37:18;;;;;;;333.63;312.70;;;;;;;;;;5052596;28;20448;-63
2021/10/31 00:39:45;;;;;;;319.87;299.50;;;;;;;;;;5052474;28;20551;-63
2021/10/31 00:42:12;;;;;;;332.53;311.90;;;;;;;;;;5051534;28;20452;-63
2021/10/31 00:44:39;;;;;;;329.67;309.57;;;;;;;;;;5051676;28;20444;-63
2021/10/31 00:47:07;;;;;;;320.63;301.33;;;;;;;;;;5063952;28;20451;-63
2021/10/31 00:49:34;;;;;;;325.77;305.33;;;;;;;;;;5072423;28;20534;-63
2021/10/31 00:52:02;;;;;;;321.50;301.17;;;;;;;;;;5063936;28;20486;-63
2021/10/31 00:54:30;;;;;;;321.10;300.60;;;;;;;;;;5072109;28;20447;-62
2021/10/31 00:56:57;;;;;;;325.67;304.40;;;;;;;;;;5059513;28;20475;-63
2021/10/31 00:59:24;;;;;;;320.87;299.70;;;;;;;;;;5052012;28;20443;-63
2021/10/31 01:01:52;;;;;;;330.27;308.70;;;;;;;;;;5051992;28;20452;-63
2021/10/31 01:04:21;;;;;;;325.43;303.90;;;;;;;;;;5072741;22;21009;-68
2021/10/31 01:07:03;;;;;;;325.37;304.33;;;;;;;;;;5051522;28;20451;-68
2021/10/31 01:09:35;;;;;;;324.23;303.00;;;;;;;;;;5056891;28;20490;-68
2021/10/31 01:12:07;;;;;;;326.30;304.50;;;;;;;;;;5051785;28;20468;-68
2021/10/31 01:14:41;;;;;;;321.40;300.20;;;;;;;;;;5051626;28;20475;-67
2021/10/31 01:17:16;;;;;;;324.27;302.97;;;;;;;;;;5042217;28;20441;-67
2021/10/31 01:19:50;;;;;;;327.90;306.53;;;;;;;;;;5032013;28;20428;-67
2021/10/31 01:22:22;;;;;;;315.60;294.93;;;;;;;;;;5043014;28;20824;-67
2021/10/31 01:24:57;;;;;;;305.67;285.73;;;;;;;;;;5051164;28;20840;-68
2021/10/31 01:27:30;;;;;;;317.40;296.60;;;;;;;;;;5039016;28;20443;-68
2021/10/31 01:30:02;;;;;;;317.70;296.80;;;;;;;;;;5031433;28;20975;-67
2021/10/31 01:32:33;;;;;;;322.10;302.00;;;;;;;;;;5040137;28;20501;-67
2021/10/31 01:35:07;;;;;;;324.70;304.10;;;;;;;;;;5043399;28;20451;-67
2021/10/31 01:37:42;;;;;;;316.90;296.17;;;;;;;;;;5031504;28;20456;-67
2021/10/31 01:40:13;;;;;;;304.33;284.13;;;;;;;;;;5031441;28;20908;-67
2021/10/31 01:42:44;;;;;;;313.53;292.60;;;;;;;;;;5032879;28;20449;-67
2021/10/31 01:45:14;;;;;;;317.13;295.90;;;;;;;;;;5031492;28;20449;-67
2021/10/31 01:47:45;;;;;;;320.03;298.47;;;;;;;;;;5042302;28;20448;-66
2021/10/31 01:50:15;;;;;;;331.20;308.70;;;;;;;;;;5051250;28;20943;-68
2021/10/31 01:52:43;;;;;;;328.87;306.83;;;;;;;;;;5041611;28;20819;-68
2021/10/31 01:55:14;;;;;;;321.10;299.77;;;;;;;;;;5035102;28;20448;-68
2021/10/31 01:57:43;;;;;;;315.87;294.97;;;;;;;;;;5046591;28;20482;-69
2021/10/31 02:00:12;;;;;;;317.00;296.20;;;;;;;;;;5055559;28;20858;-67
2021/10/31 02:02:42;;;;;;;312.70;292.57;;;;;;;;;;5054727;28;20463;-68
2021/10/31 02:05:09;;;;;;;313.37;293.47;;;;;;;;;;5055315;28;20455;-68
2021/10/31 02:07:37;;;;;;;294.57;275.23;;;;;;;;;;5044861;28;20452;-68
2021/10/31 02:10:04;;;;;;;295.23;275.90;;;;;;;;;;5035269;28;20458;-68
2021/10/31 02:12:34;;;;;;;303.13;283.77;;;;;;;;;;5042436;28;20527;-68
2021/10/31 02:15:02;;;;;;;304.80;285.20;;;;;;;;;;5055100;28;20796;-68
2021/10/31 02:17:30;;;;;;;306.73;286.43;;;;;;;;;;5053900;28;20443;-68
2021/10/31 02:19:58;;;;;;;300.80;280.77;;;;;;;;;;5055178;28;20487;-68
2021/10/31 02:22:26;;;;;;;309.07;288.87;;;;;;;;;;5054520;28;20444;-68
2021/10/31 02:24:54;;;;;;;306.37;286.07;;;;;;;;;;5054085;28;20476;-67
2021/10/31 02:27:23;;;;;;;291.00;271.80;;;;;;;;;;5048589;28;20452;-67
2021/10/31 02:29:52;;;;;;;288.03;268.53;;;;;;;;;;5046022;28;20451;-66
2021/10/31 02:32:19;;;;;;;288.50;269.40;;;;;;;;;;5035108;28;20495;-67
2021/10/31 02:34:46;;;;;;;283.20;264.50;;;;;;;;;;5034894;28;20483;-67
2021/10/31 02:37:14;;;;;;;275.47;257.30;;;;;;;;;;5034892;28;20445;-68
2021/10/31 02:39:41;;;;;;;286.37;267.50;;;;;;;;;;5034327;28;20817;-68
2021/10/31 02:42:09;;;;;;;276.87;258.70;;;;;;;;;;5050934;28;20458;-68
2021/10/31 02:44:36;;;;;;;292.20;273.63;;;;;;;;;;5052956;28;20695;-68
2021/10/31 02:47:04;;;;;;;277.70;259.50;;;;;;;;;;5054788;28;20470;-68
2021/10/31 02:49:31;;;;;;;290.13;271.90;;;;;;;;;;5048832;28;20966;-67
2021/10/31 02:52:01;;;;;;;270.63;253.33;;;;;;;;;;5034430;28;20484;-68
2021/10/31 02:54:31;;;;;;;274.50;256.97;;;;;;;;;;5035949;28;20472;-67
2021/10/31 02:57:03;;;;;;;265.13;247.73;;;;;;;;;;5034188;28;20947;-67
2021/10/31 02:59:37;;;;;;;285.93;267.83;;;;;;;;;;5034537;28;20939;-68
2021/10/31 03:02:05;;;;;;;268.50;250.60;;;;;;;;;;5034676;28;20441;-68
2021/10/31 03:04:32;;;;;;;261.37;243.80;;;;;;;;;;5032630;28;20481;-68
2021/10/31 03:07:00;;;;;;;284.83;266.23;;;;;;;;;;5034289;28;20457;-66
2021/10/31 03:09:28;;;;;;;276.43;258.03;;;;;;;;;;5034545;28;20840;-68
2021/10/31 03:11:59;;;;;;;266.97;249.07;;;;;;;;;;5036716;28;20486;-68
2021/10/31 03:14:26;;;;;;;277.73;259.03;;;;;;;;;;5053769;28;20464;-68
2021/10/31 03:16:54;;;;;;;273.67;255.33;;;;;;;;;;5051021;28;20466;-67
2021/10/31 03:19:21;;;;;;;269.43;251.53;;;;;;;;;;5053699;28;20939;-68
2021/10/31 03:21:49;;;;;;;264.27;246.37;;;;;;;;;;5053333;28;20440;-68
2021/10/31 03:24:16;;;;;;;264.90;247.50;;;;;;;;;;5053722;28;20493;-68
2021/10/31 03:26:43;;;;;;;275.37;257.50;;;;;;;;;;5048298;28;20455;-69
2021/10/31 03:29:10;;;;;;;280.23;262.53;;;;;;;;;;5033569;28;20456;-68
2021/10/31 03:31:37;;;;;;;286.97;268.87;;;;;;;;;;5036940;28;20482;-68
2021/10/31 03:34:06;;;;;;;275.20;257.90;;;;;;;;;;5053758;28;20468;-68
2021/10/31 03:36:33;;;;;;;279.30;261.60;;;;;;;;;;5049566;28;20966;-68
2021/10/31 03:39:00;;;;;;;272.70;255.50;;;;;;;;;;5033648;28;20454;-68
2021/10/31 03:41:27;;;;;;;272.73;255.17;;;;;;;;;;5034466;28;20451;-66
2021/10/31 03:43:54;;;;;;;274.47;256.90;;;;;;;;;;5053539;28;20463;-66
2021/10/31 03:46:21;;;;;;;266.77;249.53;;;;;;;;;;5052313;28;20965;-68
2021/10/31 03:48:48;;;;;;;297.97;279.27;;;;;;;;;;5033723;28;20445;-67
2021/10/31 03:51:17;;;;;;;275.77;258.27;;;;;;;;;;5033228;28;21010;-68
2021/10/31 03:53:44;;;;;;;276.37;258.13;;;;;;;;;;5033521;28;20468;-68
2021/10/31 03:56:11;;;;;;;287.67;269.13;;;;;;;;;;5046802;28;20459;-68
2021/10/31 03:58:38;;;;;;;254.43;237.07;;;;;;;;;;5035273;28;20466;-66
2021/10/31 04:01:05;;;;;;;263.77;246.07;;;;;;;;;;5033195;28;20451;-68
2021/10/31 04:03:32;;;;;;;259.90;242.60;;;;;;;;;;5033131;28;20481;-67
2021/10/31 04:05:59;;;;;;;255.27;238.00;;;;;;;;;;5032766;28;20936;-68
2021/10/31 04:08:28;;;;;;;271.53;253.93;;;;;;;;;;5033613;28;20457;-67
2021/10/31 04:10:55;;;;;;;261.13;243.53;;;;;;;;;;5033192;28;20555;-68
2021/10/31 04:13:22;;;;;;;269.30;251.47;;;;;;;;;;5046559;28;20957;-68
2021/10/31 04:15:50;;;;;;;271.20;253.10;;;;;;;;;;5050478;28;20455;-67
2021/10/31 04:18:17;;;;;;;282.10;263.70;;;;;;;;;;5039216;28;20464;-67
2021/10/31 04:20:44;;;;;;;270.27;252.67;;;;;;;;;;5032903;28;20475;-67
2021/10/31 04:23:12;;;;;;;264.30;246.90;;;;;;;;;;5044862;28;20467;-68
2021/10/31 04:25:40;;;;;;;281.50;263.20;;;;;;;;;;5051891;28;20969;-67
2021/10/31 04:28:07;;;;;;;280.30;261.93;;;;;;;;;;5041865;28;20456;-67
2021/10/31 04:30:34;;;;;;;301.73;282.30;;;;;;;;;;5032479;28;20452;-67
2021/10/31 04:33:02;;;;;;;270.20;252.20;;;;;;;;;;5041549;28;20484;-68
2021/10/31 04:35:29;;;;;;;282.20;263.70;;;;;;;;;;5047031;28;20471;-68
2021/10/31 04:38:03;;;;;;;293.47;275.10;;;;;;;;;;5040223;28;20454;-68
2021/10/31 04:40:34;;;;;;;291.50;272.20;;;;;;;;;;5052097;28;20869;-68
2021/10/31 04:43:02;;;;;;;284.73;265.97;;;;;;;;;;5051686;28;20472;-67
2021/10/31 04:45:30;;;;;;;289.93;271.00;;;;;;;;;;5052004;28;20479;-68
2021/10/31 04:47:57;;;;;;;287.40;268.27;;;;;;;;;;5045115;28;20453;-67
2021/10/31 04:50:24;;;;;;;285.00;266.20;;;;;;;;;;5032827;28;20452;-68
2021/10/31 04:52:51;;;;;;;276.73;257.67;;;;;;;;;;5032066;28;20487;-68
2021/10/31 04:55:18;;;;;;;278.73;259.83;;;;;;;;;;5032564;28;20456;-68
2021/10/31 04:57:45;;;;;;;308.47;288.80;;;;;;;;;;5036565;28;20479;-69
2021/10/31 05:00:15;;;;;;;294.00;275.07;;;;;;;;;;5052723;28;20448;-68
2021/10/31 05:02:42;;;;;;;282.03;263.33;;;;;;;;;;5041328;28;20484;-68
2021/10/31 05:05:09;;;;;;;284.83;265.30;;;;;;;;;;5039642;28;20458;-68
2021/10/31 05:07:37;;;;;;;274.80;256.70;;;;;;;;;;5051129;28;20448;-69
2021/10/31 05:10:04;;;;;;;273.07;254.70;;;;;;;;;;5052054;28;20454;-67
2021/10/31 05:12:31;;;;;;;266.17;247.80;;;;;;;;;;5048562;28;21016;-69
2021/10/31 05:14:58;;;;;;;260.40;242.50;;;;;;;;;;5031996;28;20479;-67
2021/10/31 05:17:26;;;;;;;262.50;244.60;;;;;;;;;;5045242;28;20456;-68
2021/10/31 05:19:54;;;;;;;271.67;253.73;;;;;;;;;;5031769;28;20456;-67
2021/10/31 05:22:21;;;;;;;269.03;250.83;;;;;;;;;;5031930;28;20816;-68
2021/10/31 05:24:48;;;;;;;257.70;239.43;;;;;;;;;;5031926;28;20484;-68
2021/10/31 05:27:15;;;;;;;251.93;234.73;;;;;;;;;;5031052;28;20456;-67
2021/10/31 05:29:42;;;;;;;261.70;243.90;;;;;;;;;;5032398;28;20461;-68
2021/10/31 05:32:09;;;;;;;263.33;245.43;;;;;;;;;;5032015;28;20486;-68
2021/10/31 05:34:38;;;;;;;251.43;234.13;;;;;;;;;;5031657;28;21029;-67
2021/10/31 05:37:05;;;;;;;237.53;220.70;;;;;;;;;;5036295;28;20459;-68
2021/10/31 05:39:32;;;;;;;231.10;214.53;;;;;;;;;;5052821;28;20454;-71
2021/10/31 05:41:59;;;;;;;228.40;212.13;;;;;;;;;;5053934;28;20974;-68
2021/10/31 05:44:26;;;;;;;225.93;209.73;;;;;;;;;;5056619;28;20475;-70
2021/10/31 05:46:53;;;;;;;233.60;216.60;;;;;;;;;;5053868;28;20444;-69
2021/10/31 05:49:20;;;;;;;235.73;219.23;;;;;;;;;;5064000;28;20450;-75
2021/10/31 05:51:49;;;;;;;229.80;213.60;;;;;;;;;;5068084;28;20482;-66
2021/10/31 05:54:16;;;;;;;222.63;206.63;;;;;;;;;;5048724;28;20992;-72
2021/10/31 05:56:43;;;;;;;214.80;198.90;;;;;;;;;;5055903;28;20519;-75
2021/10/31 05:59:10;;;;;;;216.30;200.40;;;;;;;;;;5056332;28;20449;-80
2021/10/31 06:01:37;;;;;;;208.53;193.07;;;;;;;;;;5033618;28;20448;-72
2021/10/31 06:04:05;;;;;;;200.33;185.67;;;;;;;;;;5033575;28;20485;-70
2021/10/31 06:06:33;;;;;;;202.87;188.17;;;;;;;;;;5033415;28;20448;-67
2021/10/31 06:09:02;;;;;;;196.63;182.00;;;;;;;;;;5033602;28;20449;-73
2021/10/31 06:11:29;;;;;;;209.73;194.83;;;;;;;;;;5033034;28;20457;-77
2021/10/31 06:13:56;;;;;;;192.37;177.77;;;;;;;;;;5033344;28;20476;-74
2021/10/31 06:16:24;;;;;;;190.53;176.40;;;;;;;;;;5038307;28;20480;-77
2021/10/31 06:18:51;;;;;;;193.50;179.10;;;;;;;;;;5036015;28;20496;-74
2021/10/31 06:21:18;;;;;;;192.13;177.73;;;;;;;;;;5032911;28;20833;-73
2021/10/31 06:23:45;;;;;;;178.87;165.33;;;;;;;;;;5048869;28;20510;-77
2021/10/31 06:26:14;;;;;;;180.90;167.27;;;;;;;;;;5051975;28;20941;-73
2021/10/31 06:28:41;;;;;;;190.27;176.37;;;;;;;;;;5045847;28;20459;-72
2021/10/31 06:31:08;;;;;;;188.43;174.73;;;;;;;;;;5033251;28;20812;-70
2021/10/31 06:33:35;;;;;;;205.20;191.30;;;;;;;;;;5031918;28;20492;-81
2021/10/31 06:36:02;;;;;;;172.10;158.90;;;;;;;;;;5031448;28;20944;-75
2021/10/31 06:38:29;;;;;;;182.30;169.23;;;;;;;;;;5031800;28;20459;-81
2021/10/31 06:40:56;;;;;;;173.17;160.40;;;;;;;;;;5035436;28;20453;-70
2021/10/31 06:43:25;;;;;;;172.40;159.43;;;;;;;;;;5054944;28;20470;-80
2021/10/31 06:45:52;;;;;;;169.80;157.00;;;;;;;;;;5054077;28;20958;-70
2021/10/31 06:48:19;;;;;;;174.07;160.93;;;;;;;;;;5054989;28;20462;-76
2021/10/31 06:50:46;;;;;;;177.47;164.37;;;;;;;;;;5046382;28;20463;-74
2021/10/31 06:53:13;;;;;;;169.50;156.90;;;;;;;;;;5034947;28;20488;-79
2021/10/31 06:55:40;;;;;;;128.73;119.43;;;;;;;;;;5041117;28;20452;-66
2021/10/31 06:58:07;;;;;;;105.13;97.30;;;;;;;;;;5053495;28;20455;-71
2021/10/31 07:00:36;;;;;;;105.80;97.37;;;;;;;;;;5053924;28;20450;-71
2021/10/31 07:03:03;;;;;;;123.10;113.37;;;;;;;;;;5054188;28;20555;-71
2021/10/31 07:05:30;;;;;;;153.57;141.77;;;;;;;;;;5096565;22;20491;-68
2021/10/31 07:07:57;;;;;;;217.17;200.97;;;;;;;;;;5087310;28;20465;-68
2021/10/31 07:10:24;;;;;;;314.13;292.87;;;;;;;;;;5093366;28;20991;-68
2021/10/31 07:12:51;;;;;;;393.07;368.17;;;;;;;;;;5094039;28;20496;-68
2021/10/31 07:15:19;;;;;;;533.13;500.17;;;;;;;;;;5092673;28;20481;-67
2021/10/31 07:17:48;;;;;;;619.37;581.47;;;;;;;;;;5094481;28;20452;-68
2021/10/31 07:20:15;;;;;;;657.23;618.80;;;;;;;;;;5089407;28;20557;-67
2021/10/31 07:22:43;;;;;;;604.90;566.40;;;;;;;;;;5078511;28;20458;-68
2021/10/31 07:25:11;;;;;;;523.57;487.00;;;;;;;;;;5092900;28;20492;-68
2021/10/31 07:27:39;;;;;;;419.47;385.97;;;;;;;;;;5073391;28;20973;-68
2021/10/31 07:30:07;;;;;;;425.50;392.60;;;;;;;;;;5074087;28;20477;-68
2021/10/31 07:32:34;;;;;;;404.17;372.47;;;;;;;;;;5073672;28;21051;-68
2021/10/31 07:35:02;;;;;;;404.10;373.23;;;;;;;;;;5079150;28;20485;-68
2021/10/31 07:37:30;;;;;;;399.50;369.30;;;;;;;;;;5077054;28;20459;-68
2021/10/31 07:39:58;;;;;;;416.43;386.27;;;;;;;;;;5074231;28;20478;-68
2021/10/31 07:42:28;;;;;;;403.27;374.37;;;;;;;;;;5088178;28;20956;-68
2021/10/31 07:44:55;;;;;;;393.63;366.33;;;;;;;;;;5093267;28;21033;-67
2021/10/31 07:47:22;;;;;;;378.53;352.80;;;;;;;;;;5091391;28;20454;-67
2021/10/31 07:49:50;;;;;;;378.47;354.17;;;;;;;;;;5093417;28;20453;-68
2021/10/31 07:52:19;;;;;;;391.60;368.00;;;;;;;;;;5079362;28;20482;-68
2021/10/31 07:54:47;;;;;;;382.60;361.13;;;;;;;;;;5073199;28;20478;-68
2021/10/31 07:57:14;;;;;;;370.43;350.33;;;;;;;;;;5084804;28;20505;-68
2021/10/31 07:59:41;;;;;;;367.60;348.50;;;;;;;;;;5091758;28;20470;-68
2021/10/31 08:02:09;;;;;;;368.37;350.37;;;;;;;;;;5083156;28;20454;-68
2021/10/31 08:04:36;;;;;;;362.60;345.50;;;;;;;;;;5087836;28;20483;-68
2021/10/31 08:07:03;;;;;;;339.13;322.87;;;;;;;;;;5072838;28;20968;-68
2021/10/31 08:09:32;;;;;;;315.87;300.47;;;;;;;;;;5073456;28;20851;-68
2021/10/31 08:11:59;;;;;;;319.63;304.33;;;;;;;;;;5071767;28;20469;-69
2021/10/31 08:14:26;;;;;;;314.20;299.27;;;;;;;;;;5071750;28;20498;-68
2021/10/31 08:16:53;;;;;;;297.47;284.07;;;;;;;;;;5071557;28;20450;-67
2021/10/31 08:19:24;;;;;;;278.40;265.83;;;;;;;;;;5071376;28;20469;-68
2021/10/31 08:21:52;;;;;;;247.87;236.37;;;;;;;;;;5071918;28;20498;-68
2021/10/31 08:24:19;;;;;;;245.80;233.87;;;;;;;;;;5085107;28;20561;-68
2021/10/31 08:26:48;;;;;;;225.30;214.80;;;;;;;;;;5072678;28;20443;-68
2021/10/31 08:29:18;;;;;;;213.83;203.23;;;;;;;;;;5085211;28;20450;-69
2021/10/31 08:31:49;;;;;;;219.87;209.67;;;;;;;;;;5072502;28;20441;-68
2021/10/31 08:34:16;;;;;;;200.60;190.90;;;;;;;;;;5083949;28;20576;-68
2021/10/31 08:36:44;;;;;;;179.63;170.90;;;;;;;;;;5072440;28;20450;-68
2021/10/31 08:39:11;;;;;;;181.67;172.77;;;;;;;;;;5072689;28;20508;-68
2021/10/31 08:41:38;;;;;;;175.27;166.77;;;;;;;;;;5079362;28;20835;-68
2021/10/31 08:44:07;;;;;;;162.40;154.40;;;;;;;;;;5075952;28;20465;-68
2021/10/31 08:46:34;;;;;;;172.83;164.63;;;;;;;;;;5091924;28;20460;-68
2021/10/31 08:49:01;;;;;;;151.60;143.90;;;;;;;;;;5072092;28;20481;-68
2021/10/31 08:51:29;;;;;;;145.97;139.20;;;;;;;;;;5073920;28;20977;-68
2021/10/31 08:53:57;;;;;;;133.03;126.60;;;;;;;;;;5091649;28;20490;-68
2021/10/31 08:56:24;;;;;;;132.00;125.47;;;;;;;;;;5090635;28;20465;-69
2021/10/31 08:58:51;;;;;;;120.27;114.47;;;;;;;;;;5088366;28;20951;-68
2021/10/31 09:01:19;;;;;;;118.17;112.40;;;;;;;;;;5084756;28;20557;-68
2021/10/31 09:03:49;;;;;;;112.70;107.23;;;;;;;;;;5077556;28;20828;-69
2021/10/31 09:06:17;;;;;;;108.13;102.77;;;;;;;;;;5091943;28;20485;-69
2021/10/31 09:08:44;;;;;;;100.73;95.43;;;;;;;;;;5088103;28;20835;-68
2021/10/31 09:11:11;;;;;;;105.37;100.17;;;;;;;;;;5090711;28;20474;-68
2021/10/31 09:13:38;;;;;;;93.20;88.50;;;;;;;;;;5076942;28;20483;-68
2021/10/31 09:16:05;;;;;;;92.60;88.00;;;;;;;;;;5071102;28;20486;-68
2021/10/31 09:18:34;;;;;;;90.97;86.37;;;;;;;;;;5085928;28;20461;-69
2021/10/31 09:21:02;;;;;;;93.00;88.10;;;;;;;;;;5086751;28;20467;-68
2021/10/31 09:23:31;;;;;;;454.73;426.83;;;;;;;;;;5091042;28;20485;-64
2021/10/31 09:25:59;;;;;;;366.27;347.30;;;;;;;;;;5090713;28;20535;-68
2021/10/31 09:28:26;;;;;;;354.33;336.63;;;;;;;;;;5077083;28;20609;-68
2021/10/31 09:30:53;;;;;;;322.97;306.10;;;;;;;;;;5081650;28;20473;-68
2021/10/31 09:33:20;;;;;;;291.33;276.13;;;;;;;;;;5088219;28;20692;-68
2021/10/31 09:35:51;;;;;;;271.60;258.50;;;;;;;;;;5081900;28;20482;-68
2021/10/31 09:38:19;;;;;;;272.17;258.97;;;;;;;;;;5089009;28;20519;-68
2021/10/31 09:40:47;;;;;;;227.63;216.17;;;;;;;;;;5071990;28;20442;-67
2021/10/31 09:43:14;;;;;;;232.87;221.67;;;;;;;;;;5071810;28;21024;-67
2021/10/31 09:45:42;;;;;;;221.43;210.80;;;;;;;;;;5072870;28;20470;-67
2021/10/31 09:48:10;;;;;;;212.37;202.17;;;;;;;;;;5072276;28;20472;-67
2021/10/31 09:50:39;;;;;;;198.73;189.03;;;;;;;;;;5084517;28;20446;-68
2021/10/31 09:53:09;;;;;;;180.47;171.30;;;;;;;;;;5071484;28;20498;-67
2021/10/31 09:55:36;;;;;;;166.20;157.70;;;;;;;;;;5081640;28;20467;-67
2021/10/31 09:58:06;;;;;;;152.83;144.93;;;;;;;;;;5071837;28;20451;-67
2021/10/31 10:00:34;;;;;;;156.67;148.93;;;;;;;;;;5071248;28;20882;-67
2021/10/31 10:03:16;;;;;;;149.57;142.17;;;;;;;;;;5076940;28;20446;-67
2021/10/31 10:05:43;;;;;;;138.10;131.10;;;;;;;;;;5088469;28;20508;-67
2021/10/31 10:08:13;;;;;;;132.30;125.53;;;;;;;;;;5076754;28;20957;-66
2021/10/31 10:10:41;;;;;;;101.00;95.80;;;;;;;;;;5072313;28;20474;-67
2021/10/31 10:13:16;;;;;;;90.00;85.20;;;;;;;;;;5080285;28;20489;-66
2021/10/31 10:15:43;;;;;;;89.03;84.10;;;;;;;;;;5074347;28;20480;-67
2021/10/31 10:18:10;;;;;;;96.20;91.20;;;;;;;;;;5074461;28;20967;-68
2021/10/31 10:20:38;;;;;;;92.53;87.60;;;;;;;;;;5075055;28;20453;-68
2021/10/31 10:23:08;;;;;;;93.60;88.70;;;;;;;;;;5074986;28;20447;-67
2021/10/31 10:25:41;;;;;;;102.80;97.57;;;;;;;;;;5074846;28;20467;-67
2021/10/31 10:28:23;;;;;;;93.20;88.30;;;;;;;;;;5074259;28;20457;-68
2021/10/31 10:30:50;;;;;;;94.37;89.37;;;;;;;;;;5088594;28;20449;-68
2021/10/31 10:33:22;;;;;;;83.37;78.80;;;;;;;;;;5095047;28;20489;-67
2021/10/31 10:35:53;;;;;;;78.47;74.17;;;;;;;;;;5080717;28;20510;-68
2021/10/31 10:38:20;;;;;;;81.87;77.30;;;;;;;;;;5074793;28;20438;-67
2021/10/31 10:40:48;;;;;;;85.50;81.00;;;;;;;;;;5074472;28;20830;-68
2021/10/31 10:43:15;;;;;;;76.03;71.83;;;;;;;;;;5074776;28;20443;-67
2021/10/31 10:45:43;;;;;;;75.87;71.77;;;;;;;;;;5075911;28;20474;-68
2021/10/31 10:48:16;;;;;;;74.77;70.70;;;;;;;;;;5094805;28;20446;-67
2021/10/31 10:50:44;;;;;;;73.93;69.90;;;;;;;;;;5083142;28;20474;-67
2021/10/31 10:53:14;;;;;;;81.20;76.77;;;;;;;;;;5074676;28;20458;-68
2021/10/31 10:55:42;;;;;;;80.77;76.63;;;;;;;;;;5074556;28;20475;-67
2021/10/31 10:58:11;;;;;;;85.50;81.20;;;;;;;;;;5074595;28;20451;-68
2021/10/31 11:00:40;;;;;;;76.33;72.23;;;;;;;;;;5076488;28;20447;-68
2021/10/31 11:03:08;;;;;;;61.23;57.73;;;;;;;;;;5087280;28;20450;-68
2021/10/31 11:05:36;;;;;;;56.40;53.00;;;;;;;;;;5087266;28;20475;-68
2021/10/31 11:08:09;;;;;;;57.50;54.30;;;;;;;;;;5087048;28;20891;-68
2021/10/31 11:10:36;;;;;;;54.93;51.90;;;;;;;;;;5074424;28;20435;-67
2021/10/31 11:13:06;;;;;;;52.80;49.43;;;;;;;;;;5082629;28;20454;-67
2021/10/31 11:15:36;;;;;;;54.77;51.67;;;;;;;;;;5094961;28;20997;-68
2021/10/31 11:18:05;;;;;;;53.23;50.23;;;;;;;;;;5088614;28;20553;-68
2021/10/31 11:20:33;;;;;;;53.03;50.00;;;;;;;;;;5074650;28;20454;-67
2021/10/31 11:23:03;;;;;;;52.80;49.60;;;;;;;;;;5073835;28;20816;-67
2021/10/31 11:25:31;;;;;;;53.13;50.00;;;;;;;;;;5072849;28;20499;-67
2021/10/31 11:27:59;;;;;;;54.60;51.13;;;;;;;;;;5074076;28;20810;-68
2021/10/31 11:30:27;;;;;;;54.77;51.57;;;;;;;;;;5074041;28;20950;-68
2021/10/31 11:32:56;;;;;;;60.07;56.67;;;;;;;;;;5087272;28;20454;-67
2021/10/31 11:35:25;;;;;;;67.00;63.37;;;;;;;;;;5073276;28;20486;-67
2021/10/31 11:37:56;;;;;;;70.47;66.57;;;;;;;;;;5082685;28;20647;-67
2021/10/31 11:40:27;;;;;;;81.40;77.17;;;;;;;;;;5073787;28;20435;-68
2021/10/31 11:42:54;;;;;;;77.70;73.40;;;;;;;;;;5081827;28;20462;-67
2021/10/31 11:45:23;;;;;;;71.53;67.80;;;;;;;;;;5076027;28;20470;-67
2021/10/31 11:48:05;;;;;;;62.83;59.33;;;;;;;;;;5074413;28;20598;-68
2021/10/31 11:50:34;;;;;;;67.60;63.80;;;;;;;;;;5072798;28;20960;-68
2021/10/31 11:53:02;;;;;;;62.30;58.80;;;;;;;;;;5073058;28;20443;-68
2021/10/31 11:55:53;;;;;;;52.70;49.80;;;;;;;;;;5072611;28;20830;-68
2021/10/31 11:58:51;;;;;;;49.67;46.77;;;;;;;;;;5073038;28;20946;-68
2021/10/31 12:01:23;;;;;;;49.00;45.80;;;;;;;;;;5072863;28;20441;-68
2021/10/31 12:03:51;;;;;;;46.57;43.97;;;;;;;;;;5089420;28;20476;-68
2021/10/31 12:06:38;;;;;;;42.70;40.30;;;;;;;;;;5080227;28;20557;-68
2021/10/31 12:09:07;;;;;;;44.60;42.00;;;;;;;;;;5088465;28;20459;-68
2021/10/31 12:11:53;;;;;;;47.53;44.83;;;;;;;;;;5092524;28;20446;-68
2021/10/31 12:14:42;;;;;;;47.03;44.43;;;;;;;;;;5091195;28;20496;-68
2021/10/31 12:17:09;;;;;;;51.23;48.43;;;;;;;;;;5082125;28;20469;-69
2021/10/31 12:19:37;;;;;;;50.43;47.70;;;;;;;;;;5074067;28;20557;-68
2021/10/31 12:22:06;;;;;;;51.80;49.00;;;;;;;;;;5088604;28;20453;-68
2021/10/31 12:24:38;;;;;;;48.00;45.40;;;;;;;;;;5073813;28;20482;-68
2021/10/31 12:27:12;;;;;;;49.17;46.27;;;;;;;;;;5073275;28;20439;-68
2021/10/31 12:29:41;;;;;;;50.97;47.97;;;;;;;;;;5077652;28;20984;-69
2021/10/31 12:32:15;;;;;;;48.57;45.97;;;;;;;;;;5073342;28;20450;-67
2021/10/31 12:34:43;;;;;;;46.10;43.60;;;;;;;;;;5091222;28;20485;-68
2021/10/31 12:37:22;;;;;;;48.80;46.20;;;;;;;;;;5071048;28;20815;-68
2021/10/31 12:39:52;;;;;;;45.10;42.60;;;;;;;;;;5072303;28;20864;-68
2021/10/31 12:42:21;;;;;;;44.53;41.93;;;;;;;;;;5079737;28;21011;-68
2021/10/31 12:44:50;;;;;;;44.60;42.10;;;;;;;;;;5080045;28;20584;-68
2021/10/31 12:47:18;;;;;;;43.90;41.47;;;;;;;;;;5090024;28;20499;-67
2021/10/31 12:49:45;;;;;;;44.73;42.33;;;;;;;;;;5083578;28;20882;-68
2021/10/31 12:52:23;;;;;;;54.00;50.90;;;;;;;;;;5076438;28;20558;-67
2021/10/31 12:55:02;;;;;;;80.33;75.93;;;;;;;;;;5073428;28;20482;-64
2021/10/31 12:57:29;;;;;;;160.77;153.67;;;;;;;;;;5083400;28;20449;-67
2021/10/31 13:00:01;;;;;;;299.70;285.60;;;;;;;;;;5072479;28;21100;-68
2021/10/31 13:02:28;;;;;;;312.23;295.33;;;;;;;;;;5082148;28;20462;-68
2021/10/31 13:04:56;;;;;;;326.43;309.70;;;;;;;;;;5082612;28;21059;-68
2021/10/31 13:07:27;;;;;;;341.07;323.87;;;;;;;;;;5073149;28;20455;-67
2021/10/31 13:09:56;;;;;;;319.97;302.57;;;;;;;;;;5076668;28;20443;-68
2021/10/31 13:12:28;;;;;;;313.97;296.57;;;;;;;;;;5099357;22;20510;-70
2021/10/31 13:15:02;;;;;;;318.03;299.73;;;;;;;;;;5050645;28;20476;-70
2021/10/31 13:17:33;;;;;;;309.37;290.77;;;;;;;;;;5037594;28;20450;-70
2021/10/31 13:20:07;;;;;;;302.90;283.37;;;;;;;;;;5051966;28;20435;-68
2021/10/31 13:22:35;;;;;;;300.07;280.57;;;;;;;;;;5034228;28;20472;-69
2021/10/31 13:25:02;;;;;;;326.17;306.17;;;;;;;;;;5046548;28;20444;-67
2021/10/31 13:27:31;;;;;;;324.23;303.63;;;;;;;;;;5051562;28;20451;-68
2021/10/31 13:29:58;;;;;;;319.10;299.23;;;;;;;;;;5048408;28;20471;-67
2021/10/31 13:32:26;;;;;;;289.23;269.63;;;;;;;;;;5051856;28;20867;-67
2021/10/31 13:34:53;;;;;;;339.57;318.87;;;;;;;;;;5051022;28;20494;-67
2021/10/31 13:37:22;;;;;;;335.23;314.93;;;;;;;;;;5051612;28;20444;-66
2021/10/31 13:39:59;;;;;;;337.10;316.83;;;;;;;;;;5051334;28;20455;-67
2021/10/31 13:42:27;;;;;;;362.17;341.07;;;;;;;;;;5051512;28;20474;-65
2021/10/31 13:44:56;;;;;;;382.87;360.97;;;;;;;;;;5045132;28;20463;-64
2021/10/31 13:47:40;;;;;;;377.73;355.17;;;;;;;;;;5037954;28;20458;-67
2021/10/31 13:50:09;;;;;;;371.73;348.83;;;;;;;;;;5055220;28;21223;-63
2021/10/31 13:52:36;;;;;;;399.70;376.13;;;;;;;;;;5054686;28;20473;-64
2021/10/31 13:55:07;;;;;;;386.87;362.23;;;;;;;;;;5054319;28;20480;-64
2021/10/31 13:57:36;;;;;;;372.93;348.70;;;;;;;;;;5055625;28;20446;-65
2021/10/31 14:00:11;;;;;;;363.70;341.60;;;;;;;;;;5055085;28;20958;-63
2021/10/31 14:02:39;;;;;;;397.97;374.63;;;;;;;;;;5047558;28;20538;-64
2021/10/31 14:05:07;;;;;;;392.03;369.23;;;;;;;;;;5040702;28;20448;-64